Weather observations for the past three days for
Cape Lisburne, Cape Lisburne LRRS Airport
Imperial (Metric)
Date Time (akdt) Wind (mph) Vis. (mi.) Weather Sky Cond. Temperature (ºF) Relative Humidity Wind Chill (°F) Heat Index (°F) Pressure Precipitation (in)
Air Dwpt 6 hour altimeter (in) sea level (mb) 1 hr 3 hr 6 hr
Max. Min.
06 22:55 N 13 10.00 Overcast OVC006 24.8 23 93% 14 30.18 1022.0
06 21:55 N 6 10.00 Overcast OVC006 25.2 24.3 26.2 23.7 96% 19 30.17 1021.6
06 20:55 NW 13 10.00 Overcast OVC006 26.6 24.8 93% 16 30.16 1021.4
06 19:55 NW 8 10.00 Overcast OVC006 26.6 24.8 93% 19 30.16 1021.3
06 18:55 NW 7 10.00 Overcast OVC006 25.7 24.1 94% 19 30.16 1021.1
06 17:55 NW 9 10.00 Overcast OVC006 24.8 24.8 100% 16 30.14 1020.6
06 16:55 N 8 10.00 Overcast OVC006 24.8 23 93% 17 30.13 1020.3
06 15:55 NW 9 10.00 Overcast OVC006 24.8 23.5 24.1 20.8 95% 16 30.12 1020.0
06 14:55 NW 12 10.00 Overcast OVC008 24.8 23 93% 15 30.12 1019.8
06 13:55 NW 7 10.00 Overcast OVC012 23 21.2 93% 16 30.11 1019.5
06 12:55 NW 9 10.00 Overcast OVC009 22.5 20.3 91% 13 30.1 1019.2
06 11:55 W 8 10.00 Overcast OVC009 21.2 19.4 93% 12 30.09 1018.9
06 10:55 NW 12 9.00 Overcast OVC006 21.2 19.4 93% 10 30.08 1018.4
06 09:55 N 9 10.00 Overcast OVC013 23.2 20.5 23.5 22.6 89% 14 30.06 1017.9
06 07:55 NW 5 10.00 Light Showers Snow OVC009 23 21.2 93% 18 30.03 1016.8
06 06:55 NW 7 10.00 Light Snow OVC009 23.4 21.9 94% 16 30.02 1016.4
06 05:55 NW 6 10.00 Light Snow OVC008 23 21.2 93% 17 30.01 1016.1
06 04:55 NW 7 10.00 Light Snow FEW016 OVC029 23 21.2 93% 16 30 1015.8
06 03:55 NW 6 10.00 Light Snow BKN010 OVC028 23.2 21.4 23.7 23 93% 17 30 1015.7
06 02:55 W 6 10.00 Light Snow OVC010 23 21.2 93% 17 29.99 1015.4
06 01:55 W 12 10.00 Light Snow OVC012 23 21.2 93% 13 29.98 1015.2
06 00:55 NW 10 10.00 Light Snow OVC011 23.5 21 90% 14 29.97 1015.0
05 23:55 W 8 10.00 Light Showers Snow OVC012 23 21.2 93% 15 29.97 1014.8
05 22:55 W 9 10.00 Overcast FEW013 OVC044 23 19.4 86% 14 29.97 1014.8
05 21:55 NW 9 10.00 Light Snow BKN012 OVC048 23.2 20.1 23.7 22.6 88% 14 29.96 1014.5
05 20:55 W 10 10.00 Light Snow BKN013 OVC049 23 19.4 86% 13 29.96 1014.5
05 19:55 NW 7 10.00 Light Showers Snow BKN014 OVC050 23 19.4 86% 16 29.95 1014.3
05 18:55 NW 7 10.00 Light Snow OVC014 23.5 19.8 85% 16 29.95 1014.2
05 17:55 NW 8 10.00 Light Showers Snow OVC012 23 19.4 86% 15 29.95 1014.1
05 16:55 NW 10 10.00 Light Showers Snow BKN013 OVC065 23 19.4 86% 13 29.95 1014.0
05 15:55 NW 10 10.00 Light Showers Snow OVC011 22.8 19.8 23.9 22.5 88% 13 29.94 1013.8
05 14:55 NW 10 9.00 Light Snow OVC011 23 19.4 86% 13 29.94 1013.9
05 13:55 NW 7 5.00 Light Snow OVC012 23 21.2 93% 16 29.94 1013.7
05 12:55 NW 9 4.00 Light Snow OVC013 23.2 20.3 89% 14 29.93 1013.6
05 11:55 NW 6 10.00 Light Showers Snow OVC012 23 19.4 86% 17 29.93 1013.5
05 10:55 Vrbl 7 10.00 Light Snow OVC012 23 19.4 86% 16 29.93 1013.5
05 09:55 NW 6 10.00 Light Snow OVC011 22.6 19.9 24.4 22.3 89% 16 29.94 1013.9
05 08:55 NW 6 10.00 Light Snow OVC010 23 21.2 93% 17 29.95 1014.0
05 07:55 NW 6 7.00 Light Showers Snow OVC012 23 19.4 86% 17 29.95 1014.1
05 06:55 W 8 10.00 Overcast OVC012 22.8 18.9 85% 14 29.94 1013.9
05 05:55 W 12 10.00 Light Snow OVC013 23 19.4 86% 13 29.94 1013.9
05 04:55 W 12 10.00 Overcast OVC011 24.8 21.2 86% 15 29.94 1013.9
05 03:55 W 9 10.00 Light Showers Snow OVC009 24.3 21.7 28.6 24.4 90% 15 29.95 1014.2
05 02:55 W 10 9.00 Light Showers Snow OVC008 24.8 23 93% 15 29.95 1014.3
05 01:55 SW 13 10.00 Light Snow BKN009 OVC060 24.8 23 93% 14 29.96 1014.6
05 00:55 NE 22 10.00 Light Snow and Breezy BKN008 BKN060 26.1 23.4 90% 13 29.96 1014.5
04 23:55 NW 17 G 25 4.00 Fog/Mist OVC007 26.6 24.8 93% 15 29.97 1014.9
04 22:55 N 17 G 26 4.00 Light Showers Snow OVC008 26.6 24.8 93% 15 29.97 1015.0
04 21:55 NE 21 8.00 Light Snow and Breezy OVC011 28.4 25.3 28.8 28 88% 16 29.97 1014.9
04 20:55 N 23 10.00 Overcast and Breezy OVC012 28.4 24.8 86% 15 29.98 1015.2
04 19:55 NE 22 2.50 Light Showers Snow Fog/Mist and Breezy BKN009 28.4 24.8 86% 16 29.99 1015.5
04 18:55 N 23 2.50 Light Snow Fog/Mist and Breezy BKN010 OVC033 28.6 25.9 90% 15 30 1015.8
04 17:55 E 22 G 26 4.00 Light Snow and Breezy OVC031 28.4 24.8 86% 16 30.01 1016.2
04 16:55 NE 20 G 24 1.00 Light Snow Fog/Mist OVC018 28.4 24.8 86% 16 30.03 1016.8
04 15:55 E 16 1.00 Light Snow Fog/Mist OVC013 28.4 24.6 28.2 25 86% 17 30.04 1017.2
04 14:55 E 18 1.00 Light Snow Fog/Mist OVC015 28.4 24.8 86% 17 30.05 1017.4
04 13:55 S 18 1.00 Light Snow Fog/Mist OVC011 28.4 24.8 86% 17 30.05 1017.6
04 12:55 NE 20 0.75 Light Snow Fog/Mist OVC014 27.3 23.7 86% 15 30.05 1017.7
04 11:55 NE 17 G 28 0.75 Light Snow Fog/Mist OVC012 26.6 23 86% 15 30.05 1017.6
04 10:55 N 24 G 31 0.75 Light Snow Fog/Mist and Breezy OVC013 26.6 23 86% 13 30.05 1017.5
04 09:55 SE 20 G 30 0.75 Light Snow Fog/Mist OVC018 25.3 21.9 26.1 23.7 87% 12 30.04 1017.2
04 08:55 S 18 G 26 1.00 Light Showers Snow Fog/Mist OVC007 24.8 21.2 86% 12 30.03 1017.0
04 07:55 SE 17 1.00 Light Snow Fog/Mist OVC010 24.8 21.2 86% 12 30.03 1017.0
04 06:55 S 20 1.50 Fog/Mist OVC010 24.6 21.6 88% 11 30.04 1017.1
04 05:55 NE 17 3.00 Light Showers Snow BKN004 24.8 21.2 86% 12 30.04 1017.1
04 04:55 NE 17 6.00 Light Snow OVC035 24.8 21.2 86% 12 30.03 1016.9
04 03:55 SW 16 G 24 8.00 Light Snow FEW010 SCT024 OVC033 24.8 20.7 32.9 25.5 84% 13 30.03 1016.7
04 02:55 SW 9 6.00 Light Showers Snow OVC010 26.6 23 86% 18 30.02 1016.4
04 01:55 W 13 G 18 9.00 Light Snow OVC010 26.6 24.8 93% 16 30.01 1016.3
03 23:55 W 20 3.00 Light Snow Fog/Mist SCT013 OVC040 30.2 26.6 86% 19 29.99 1015.5
Date Time (akdt) Wind (mph) Vis. (mi.) Weather Sky Cond. Air Dwpt Max. Min. Relative Humidity Wind Chill (°F) Heat Index (°F) altimeter (in) sea level (mb) 1 hr 3 hr 6 hr
6 hour
Temperature (ºF) Pressure Precipitation (in)